Time;durP1;ratioP1;P1;durP2;ratioP2;P2;SDS_P1;SDS_P2;PMS_P1;PMS_P2;Temp;Humidity;BMP_temperature;BMP_pressure;BME280_temperature;BME280_humidity;BME280_pressure;Samples;Min_cycle;Max_cycle;Signal;HPM_P1;HPM_P2
2023/01/21 00:00:41;;;;;;;63.53;30.13;;;-2.20;99.90;;;;;;5071114;28;20009;-69
2023/01/21 00:03:07;;;;;;;72.72;33.58;;;-2.30;99.90;;;;;;5075020;28;20020;-70
2023/01/21 00:05:33;;;;;;;57.55;29.98;;;-2.30;99.90;;;;;;5074690;28;20035;-70
2023/01/21 00:07:58;;;;;;;58.88;28.35;;;-2.40;99.90;;;;;;5074943;28;20031;-70
2023/01/21 00:10:24;;;;;;;55.55;29.40;;;-2.40;99.90;;;;;;5060940;28;20087;-70
2023/01/21 00:12:50;;;;;;;59.05;31.08;;;-2.50;99.90;;;;;;5054076;28;20499;-70
2023/01/21 00:15:15;;;;;;;57.50;28.95;;;-2.50;99.90;;;;;;5052574;28;20029;-70
2023/01/21 00:17:42;;;;;;;58.42;28.25;;;-2.50;99.90;;;;;;5074747;28;20020;-70
2023/01/21 00:20:09;;;;;;;61.45;30.58;;;-2.50;99.90;;;;;;5073236;28;20024;-69
2023/01/21 00:22:35;;;;;;;58.35;29.45;;;-2.50;99.90;;;;;;5074897;28;20031;-70
2023/01/21 00:25:01;;;;;;;67.75;28.60;;;-2.40;99.90;;;;;;5074417;28;20021;-70
2023/01/21 00:27:26;;;;;;;55.67;27.83;;;-2.40;99.90;;;;;;5074696;28;20025;-70
2023/01/21 00:29:52;;;;;;;56.88;28.58;;;-2.60;99.90;;;;;;5069556;28;20037;-69
2023/01/21 00:32:18;;;;;;;62.88;30.35;;;-2.50;99.90;;;;;;5073936;28;20042;-69
2023/01/21 00:34:44;;;;;;;64.20;28.83;;;-2.50;99.90;;;;;;5071887;28;20028;-69
2023/01/21 00:37:09;;;;;;;56.80;29.00;;;-2.50;99.90;;;;;;5074212;28;20442;-69
2023/01/21 00:39:35;;;;;;;66.72;30.75;;;-2.40;99.90;;;;;;5070513;28;20040;-69
2023/01/21 00:42:03;;;;;;;64.15;31.35;;;-2.30;99.90;;;;;;5075253;28;20063;-69
2023/01/21 00:44:28;;;;;;;59.50;29.75;;;-2.40;99.90;;;;;;5068941;28;20047;-69
2023/01/21 00:46:54;;;;;;;63.75;29.15;;;-2.50;99.90;;;;;;5061843;28;20025;-69
2023/01/21 00:49:19;;;;;;;64.78;32.50;;;-2.40;99.90;;;;;;5054109;28;20021;-69
2023/01/21 00:51:45;;;;;;;60.10;29.33;;;-2.40;99.90;;;;;;5053969;28;20025;-69
2023/01/21 00:54:10;;;;;;;59.83;28.55;;;-2.50;99.90;;;;;;5060922;28;20056;-69
2023/01/21 00:56:36;;;;;;;77.53;31.95;;;-2.60;99.90;;;;;;5068991;28;20388;-69
2023/01/21 00:59:01;;;;;;;54.63;28.77;;;-2.70;99.90;;;;;;5073739;28;20029;-69
2023/01/21 01:01:29;;;;;;;60.63;28.85;;;-2.80;99.90;;;;;;5074374;28;20067;-69
2023/01/21 01:03:54;;;;;;;64.22;28.55;;;-2.80;99.90;;;;;;5073695;28;20024;-69
2023/01/21 01:06:22;;;;;;;62.33;28.27;;;-2.90;99.90;;;;;;5073998;28;20070;-69
2023/01/21 01:08:48;;;;;;;62.28;28.90;;;-2.90;99.90;;;;;;5072782;28;20082;-69
2023/01/21 01:11:15;;;;;;;63.95;30.75;;;-2.90;99.90;;;;;;5055762;28;20021;-69
2023/01/21 01:13:41;;;;;;;63.70;31.90;;;-2.80;99.90;;;;;;5055307;28;20395;-69
2023/01/21 01:16:07;;;;;;;73.25;31.25;;;-2.70;99.90;;;;;;5074206;28;20091;-69
2023/01/21 01:18:35;;;;;;;74.18;33.70;;;-2.70;99.90;;;;;;5074036;28;20028;-69
2023/01/21 01:21:02;;;;;;;76.53;32.90;;;-2.50;99.90;;;;;;5057447;28;20556;-69
2023/01/21 01:23:28;;;;;;;66.85;31.33;;;-2.60;99.90;;;;;;5053400;28;20120;-69
2023/01/21 01:25:56;;;;;;;60.83;28.83;;;-2.70;99.90;;;;;;5073253;28;20443;-69
2023/01/21 01:28:21;;;;;;;80.65;32.47;;;-2.80;99.90;;;;;;5073379;28;20029;-69
2023/01/21 01:30:47;;;;;;;65.30;31.13;;;-2.90;99.90;;;;;;5054877;28;20021;-69
2023/01/21 01:33:12;;;;;;;71.75;30.77;;;-2.80;99.90;;;;;;5061718;28;20044;-69
2023/01/21 01:35:38;;;;;;;64.25;31.65;;;-2.80;99.90;;;;;;5073412;28;20024;-69
2023/01/21 01:38:06;;;;;;;55.05;28.45;;;-2.70;99.90;;;;;;5073165;28;20480;-69
2023/01/21 01:40:33;;;;;;;61.65;31.77;;;-2.80;99.90;;;;;;5072812;28;20021;-69
2023/01/21 01:42:58;;;;;;;68.38;30.23;;;-2.90;99.90;;;;;;5073157;28;20035;-69
2023/01/21 01:45:24;;;;;;;64.32;30.30;;;-3.00;99.90;;;;;;5073019;28;20032;-69
2023/01/21 01:48:05;;;;;;;67.65;31.08;;;-3.00;99.90;;;;;;5072995;28;20036;-69
2023/01/21 01:50:33;;;;;;;71.63;31.10;;;-2.90;99.90;;;;;;5073190;28;20020;-69
2023/01/21 01:53:00;;;;;;;67.78;31.17;;;-2.70;99.90;;;;;;5072282;28;20032;-69
2023/01/21 01:55:29;;;;;;;67.65;30.48;;;-2.50;99.90;;;;;;5072741;28;20025;-69
2023/01/21 01:57:55;;;;;;;66.43;29.25;;;-2.60;99.90;;;;;;5073086;28;20040;-69
2023/01/21 02:00:22;;;;;;;67.03;31.23;;;-2.50;99.90;;;;;;5061571;28;20037;-69
2023/01/21 02:03:43;;;;;;;65.78;31.40;;;-2.50;99.90;;;;;;5071298;28;20103;-69
2023/01/21 02:05:34;;;;;;;71.40;31.38;;;-2.40;99.90;;;;;;5073785;23;20046;-70
2023/01/21 02:08:00;;;;;;;66.55;29.45;;;-2.40;99.90;;;;;;5033046;28;20017;-69
2023/01/21 02:10:26;;;;;;;67.57;32.05;;;-2.40;99.90;;;;;;5033244;28;20354;-69
2023/01/21 02:12:52;;;;;;;70.35;32.40;;;-2.40;99.90;;;;;;5032967;28;20052;-69
2023/01/21 02:15:18;;;;;;;77.65;32.47;;;-2.40;99.90;;;;;;5045037;28;20041;-70
2023/01/21 02:17:57;;;;;;;71.55;30.63;;;-2.30;99.90;;;;;;5053133;28;20474;-69
2023/01/21 02:20:54;;;;;;;66.82;29.95;;;-2.20;99.90;;;;;;5052907;28;20389;-69
2023/01/21 02:23:22;;;;;;;73.55;32.47;;;-2.30;99.90;;;;;;5036906;28;20025;-69
2023/01/21 02:26:09;;;;;;;65.15;30.88;;;-2.10;99.90;;;;;;5020876;28;20114;-69
2023/01/21 02:29:04;;;;;;;70.90;33.33;;;-2.00;99.90;;;;;;5013322;28;20022;-69
2023/01/21 02:31:54;;;;;;;69.93;31.45;;;-1.70;99.90;;;;;;5013149;28;20034;-69
2023/01/21 02:34:42;;;;;;;74.80;32.60;;;-1.50;99.90;;;;;;5013527;28;20030;-69
2023/01/21 02:37:34;;;;;;;79.88;33.15;;;-1.60;99.90;;;;;;5028103;28;20043;-69
2023/01/21 02:40:10;;;;;;;80.78;34.85;;;-1.70;99.90;;;;;;5056519;28;20108;-69
2023/01/21 02:42:47;;;;;;;76.22;33.60;;;-1.70;99.90;;;;;;5056712;28;20044;-69
2023/01/21 02:45:45;;;;;;;75.03;32.50;;;-1.70;99.90;;;;;;5056344;28;20051;-70
2023/01/21 02:48:24;;;;;;;67.82;32.50;;;-1.70;99.90;;;;;;5056606;28;20025;-69
2023/01/21 02:50:51;;;;;;;74.88;32.75;;;-1.60;99.90;;;;;;5056629;28;20052;-69
2023/01/21 02:53:32;;;;;;;67.80;32.53;;;-1.60;99.90;;;;;;5049068;28;20037;-69
2023/01/21 02:56:11;;;;;;;67.00;31.92;;;-1.50;99.90;;;;;;5024598;28;20068;-69
2023/01/21 02:58:43;;;;;;;72.50;33.72;;;-1.50;99.90;;;;;;5016724;28;20104;-69
2023/01/21 03:01:18;;;;;;;71.78;31.65;;;-1.50;99.90;;;;;;5016593;28;20389;-69
2023/01/21 03:04:21;;;;;;;73.25;30.17;;;-1.50;99.90;;;;;;5049108;28;20021;-69
2023/01/21 03:07:02;;;;;;;72.70;31.45;;;-1.60;99.90;;;;;;5001799;28;20185;-69
2023/01/21 03:09:30;;;;;;;64.40;29.15;;;-1.60;99.90;;;;;;5056241;28;20025;-70
2023/01/21 03:12:07;;;;;;;67.18;29.77;;;-1.70;99.90;;;;;;5048789;28;20547;-69
2023/01/21 03:17:35;;;;;;;59.75;29.08;;;-1.90;99.90;;;;;;5047518;28;20033;-70
2023/01/21 03:20:23;;;;;;;62.60;29.67;;;-2.00;99.90;;;;;;5035735;28;20117;-69
2023/01/21 03:22:55;;;;;;;57.25;28.48;;;-2.20;99.90;;;;;;5050644;28;20028;-69
2023/01/21 03:25:22;;;;;;;63.42;29.42;;;-2.00;99.90;;;;;;5056136;28;20377;-69
2023/01/21 03:27:49;;;;;;;66.85;30.65;;;-1.90;99.90;;;;;;5055647;28;20020;-69
2023/01/21 03:30:18;;;;;;;68.68;31.55;;;-1.70;99.90;;;;;;5055554;28;20423;-69
2023/01/21 03:32:48;;;;;;;77.45;31.77;;;-1.60;99.90;;;;;;5055468;28;20539;-69
2023/01/21 03:35:37;;;;;;;66.90;30.75;;;-1.50;99.90;;;;;;5048980;28;20398;-69
2023/01/21 03:38:15;;;;;;;66.32;29.45;;;-1.40;99.90;;;;;;5015610;28;20101;-69
2023/01/21 03:40:47;;;;;;;74.63;31.52;;;-1.30;99.90;;;;;;5016200;28;20029;-69
2023/01/21 03:43:12;;;;;;;75.68;32.28;;;-1.20;99.90;;;;;;5015959;28;20022;-69
2023/01/21 03:45:49;;;;;;;77.30;32.28;;;-1.20;99.90;;;;;;5015553;28;20392;-69
2023/01/21 03:48:38;;;;;;;75.38;31.00;;;-1.10;99.90;;;;;;5031052;28;20120;-70
2023/01/21 03:51:12;;;;;;;69.03;30.88;;;-1.10;99.90;;;;;;5035305;28;20031;-70
2023/01/21 03:53:38;;;;;;;66.20;30.08;;;-1.10;99.90;;;;;;5033886;28;20033;-69
2023/01/21 03:56:03;;;;;;;70.45;29.88;;;-1.10;99.90;;;;;;5035872;28;20121;-70
2023/01/21 03:58:29;;;;;;;70.55;31.10;;;-1.10;99.90;;;;;;5035068;28;20037;-70
2023/01/21 04:00:55;;;;;;;74.90;30.65;;;-1.20;99.90;;;;;;5033257;28;20032;-70
2023/01/21 04:03:21;;;;;;;77.18;31.10;;;-1.20;99.90;;;;;;5035299;28;20022;-70
2023/01/21 04:05:46;;;;;;;82.13;30.23;;;-1.20;99.90;;;;;;5021372;28;20038;-70
2023/01/21 04:08:12;;;;;;;66.85;28.92;;;-1.30;99.90;;;;;;5037665;28;20029;-70
2023/01/21 04:10:37;;;;;;;66.82;28.30;;;-1.30;99.90;;;;;;5054828;28;20036;-70
2023/01/21 04:13:03;;;;;;;64.03;28.13;;;-1.30;99.90;;;;;;5055004;28;20091;-70
2023/01/21 04:15:28;;;;;;;61.08;26.48;;;-1.40;99.90;;;;;;5054562;28;20441;-70
2023/01/21 04:17:54;;;;;;;61.47;26.83;;;-1.60;99.90;;;;;;5055139;28;20108;-70
2023/01/21 04:20:19;;;;;;;60.85;27.33;;;-1.70;99.90;;;;;;5054619;28;20099;-70
2023/01/21 04:22:45;;;;;;;60.03;28.70;;;-1.80;99.90;;;;;;5054545;28;20059;-69
2023/01/21 04:25:10;;;;;;;63.33;25.88;;;-1.80;99.90;;;;;;5038938;28;20481;-70
2023/01/21 04:27:36;;;;;;;63.42;28.35;;;-1.80;99.90;;;;;;5034739;28;20032;-70
2023/01/21 04:30:01;;;;;;;55.78;25.70;;;-1.90;99.90;;;;;;5032160;28;20044;-70
2023/01/21 04:32:27;;;;;;;55.20;26.00;;;-2.00;99.90;;;;;;5034261;28;20079;-70
2023/01/21 04:34:53;;;;;;;68.05;29.95;;;-2.10;99.90;;;;;;5033955;28;20036;-70
2023/01/21 04:37:18;;;;;;;64.07;29.02;;;-2.20;99.90;;;;;;5034469;28;20017;-70
2023/01/21 04:39:44;;;;;;;63.47;28.42;;;-2.10;99.90;;;;;;5034615;28;20052;-70
2023/01/21 04:42:09;;;;;;;64.15;27.05;;;-2.10;99.90;;;;;;5034520;28;20070;-70
2023/01/21 04:44:35;;;;;;;67.72;31.13;;;-2.00;99.90;;;;;;5034751;28;20480;-70
2023/01/21 04:47:00;;;;;;;59.20;28.15;;;-2.00;99.90;;;;;;5034254;28;20029;-70
2023/01/21 04:49:26;;;;;;;62.38;26.98;;;-2.00;99.90;;;;;;5020784;28;20045;-70
2023/01/21 04:51:51;;;;;;;60.55;27.20;;;-2.10;99.90;;;;;;5014636;28;20149;-70
2023/01/21 04:54:17;;;;;;;55.38;25.38;;;-2.20;99.90;;;;;;5024301;28;20037;-70
2023/01/21 04:56:42;;;;;;;51.33;24.77;;;-2.40;99.90;;;;;;5014829;28;20102;-70
2023/01/21 04:59:08;;;;;;;57.28;26.27;;;-2.50;99.90;;;;;;5017298;28;20487;-70
2023/01/21 05:01:33;;;;;;;47.08;22.25;;;-2.50;99.90;;;;;;5033043;28;20025;-70
2023/01/21 05:03:59;;;;;;;45.10;23.17;;;-2.50;99.90;;;;;;5052514;28;20545;-70
2023/01/21 05:06:24;;;;;;;47.45;23.95;;;-2.70;99.90;;;;;;5033568;28;20131;-70
2023/01/21 05:08:50;;;;;;;50.20;23.45;;;-2.70;99.90;;;;;;5032463;28;20025;-70
2023/01/21 05:11:17;;;;;;;56.05;26.52;;;-2.70;99.90;;;;;;5033978;28;20025;-70
2023/01/21 05:13:43;;;;;;;94.70;52.20;;;-2.50;99.90;;;;;;5033630;28;20551;-70
2023/01/21 05:16:09;;;;;;;94.07;45.03;;;-2.30;99.90;;;;;;5041540;28;20047;-70
2023/01/21 05:18:36;;;;;;;91.95;42.45;;;-2.00;99.90;;;;;;5053765;28;20020;-70
2023/01/21 05:21:01;;;;;;;88.95;42.50;;;-1.80;99.90;;;;;;5053513;28;20491;-70
2023/01/21 05:23:27;;;;;;;67.05;31.13;;;-1.80;99.90;;;;;;5046260;28;20029;-71
2023/01/21 05:25:52;;;;;;;54.63;28.10;;;-1.80;99.90;;;;;;5033715;28;20420;-70
2023/01/21 05:28:18;;;;;;;58.15;27.73;;;-1.90;99.90;;;;;;5032074;28;20482;-70
2023/01/21 05:30:44;;;;;;;173.95;76.85;;;-2.00;99.90;;;;;;5033456;28;20555;-70
2023/01/21 05:33:09;;;;;;;188.73;73.82;;;-2.10;99.90;;;;;;5033671;28;20136;-70
2023/01/21 05:35:35;;;;;;;210.98;90.80;;;-2.20;99.90;;;;;;5016494;28;20113;-70
2023/01/21 05:38:00;;;;;;;130.45;60.90;;;-2.20;99.90;;;;;;5013888;28;20028;-70
2023/01/21 05:40:26;;;;;;;84.18;37.53;;;-2.10;99.90;;;;;;5033592;28;20090;-70
2023/01/21 05:42:51;;;;;;;67.80;30.17;;;-2.10;99.90;;;;;;5053454;28;20052;-70
2023/01/21 05:45:17;;;;;;;50.35;27.27;;;-2.10;99.90;;;;;;5053329;28;20029;-70
2023/01/21 05:47:43;;;;;;;54.28;25.50;;;-2.00;99.90;;;;;;5053133;28;20553;-70
2023/01/21 05:50:09;;;;;;;54.03;27.00;;;-2.10;99.90;;;;;;5053387;28;20500;-70
2023/01/21 05:52:35;;;;;;;44.08;24.13;;;-2.20;99.90;;;;;;5053611;28;20100;-70
2023/01/21 05:55:01;;;;;;;43.05;22.90;;;-2.40;99.90;;;;;;5053119;28;20052;-70
2023/01/21 05:57:27;;;;;;;47.03;23.55;;;-2.50;99.90;;;;;;5052781;28;20036;-70
2023/01/21 05:59:53;;;;;;;42.58;23.90;;;-2.50;99.90;;;;;;5052987;28;20021;-70
2023/01/21 06:02:18;;;;;;;46.35;25.23;;;-2.50;99.90;;;;;;5023165;28;20092;-70
2023/01/21 06:04:44;;;;;;;51.47;24.88;;;-2.50;99.90;;;;;;5013378;28;20490;-70
2023/01/21 06:07:09;;;;;;;66.93;31.27;;;-2.50;99.90;;;;;;5015515;28;20026;-70
2023/01/21 06:09:35;;;;;;;61.85;28.27;;;-2.40;99.90;;;;;;5013700;28;20091;-70
2023/01/21 06:12:00;;;;;;;52.83;26.40;;;-2.40;99.90;;;;;;5026001;28;20455;-70
2023/01/21 06:14:26;;;;;;;55.25;27.10;;;-2.30;99.90;;;;;;5036907;28;20039;-70
2023/01/21 06:16:51;;;;;;;133.73;67.30;;;-2.30;99.90;;;;;;5033434;28;20025;-70
2023/01/21 06:19:17;;;;;;;138.48;56.47;;;-2.10;99.90;;;;;;5017558;28;20022;-70
2023/01/21 06:21:42;;;;;;;139.98;62.53;;;-1.90;99.90;;;;;;5016699;28;20077;-70
2023/01/21 06:24:08;;;;;;;141.50;64.10;;;-1.80;99.90;;;;;;5052148;28;20029;-70
2023/01/21 06:26:34;;;;;;;203.88;90.95;;;-1.70;99.90;;;;;;5057214;28;20107;-70
2023/01/21 06:28:59;;;;;;;175.32;83.20;;;-1.60;99.90;;;;;;5036568;28;20034;-70
2023/01/21 06:31:25;;;;;;;102.10;43.78;;;-1.60;99.90;;;;;;5017199;28;20041;-70
2023/01/21 06:33:50;;;;;;;61.05;32.00;;;-1.60;99.90;;;;;;5023261;28;20029;-70
2023/01/21 06:36:16;;;;;;;248.15;92.18;;;-1.50;99.90;;;;;;5036851;28;20365;-70
2023/01/21 06:38:41;;;;;;;149.23;55.10;;;-1.50;99.90;;;;;;5036493;28;20084;-70
2023/01/21 06:41:07;;;;;;;114.80;42.63;;;-1.50;99.90;;;;;;5036566;28;20080;-70
2023/01/21 06:43:32;;;;;;;138.98;53.17;;;-1.40;99.90;;;;;;5036542;28;20101;-70
2023/01/21 06:45:58;;;;;;;430.17;146.98;;;-1.40;99.90;;;;;;5036256;28;20039;-70
2023/01/21 06:48:23;;;;;;;440.20;147.75;;;-1.40;99.90;;;;;;5036418;28;20048;-70
2023/01/21 06:50:49;;;;;;;249.65;89.85;;;-1.30;99.90;;;;;;5035599;28;20025;-70
2023/01/21 06:53:14;;;;;;;135.57;52.55;;;-1.30;99.90;;;;;;5036305;28;20052;-70
2023/01/21 06:55:40;;;;;;;76.90;32.08;;;-1.30;99.90;;;;;;5036021;28;20033;-70
2023/01/21 06:58:05;;;;;;;70.72;32.58;;;-1.20;99.90;;;;;;5036164;28;20025;-70
2023/01/21 07:00:31;;;;;;;64.82;29.42;;;-1.00;99.90;;;;;;5036140;28;20054;-70
2023/01/21 07:02:59;;;;;;;71.90;31.27;;;-1.00;99.90;;;;;;5036143;28;20029;-70
2023/01/21 07:05:26;;;;;;;88.00;41.15;;;-0.90;99.90;;;;;;5045674;28;20041;-70
2023/01/21 07:07:56;;;;;;;146.90;66.95;;;-0.80;99.90;;;;;;5056014;28;20029;-70
2023/01/21 07:10:22;;;;;;;127.78;53.75;;;-0.80;99.90;;;;;;5056743;28;20025;-70
2023/01/21 07:12:48;;;;;;;83.90;37.53;;;-0.70;99.90;;;;;;5055837;28;20606;-70
2023/01/21 07:15:14;;;;;;;162.68;64.53;;;-0.70;99.90;;;;;;5055727;28;20200;-70
2023/01/21 07:17:39;;;;;;;92.45;38.25;;;-0.70;99.90;;;;;;5055610;28;20025;-70
2023/01/21 07:20:05;;;;;;;122.18;48.00;;;-0.60;99.90;;;;;;5055756;28;20055;-70
2023/01/21 07:22:34;;;;;;;90.07;36.55;;;-0.60;99.90;;;;;;5046754;28;20026;-70
2023/01/21 07:24:59;;;;;;;70.47;31.50;;;-0.60;99.90;;;;;;5030646;28;20113;-70
2023/01/21 07:27:25;;;;;;;63.80;30.20;;;-0.60;99.90;;;;;;5027466;28;20453;-70
2023/01/21 07:29:51;;;;;;;56.40;27.70;;;-0.60;99.90;;;;;;5035938;28;20036;-70
2023/01/21 07:32:16;;;;;;;68.32;29.60;;;-0.70;99.90;;;;;;5055732;28;20029;-70
2023/01/21 07:34:42;;;;;;;58.22;28.48;;;-0.70;99.90;;;;;;5035354;28;20029;-70
2023/01/21 07:37:07;;;;;;;62.22;28.05;;;-0.70;99.90;;;;;;5036056;28;20384;-70
2023/01/21 07:39:35;;;;;;;52.28;26.85;;;-0.70;99.90;;;;;;5035569;28;20041;-70
2023/01/21 07:42:01;;;;;;;52.70;25.63;;;-0.70;99.90;;;;;;5035432;28;20033;-70
2023/01/21 07:44:26;;;;;;;51.25;25.48;;;-0.70;99.90;;;;;;5035321;28;20029;-70
2023/01/21 07:46:52;;;;;;;68.90;29.83;;;-0.70;99.90;;;;;;5035350;28;20029;-70
2023/01/21 07:49:18;;;;;;;57.55;26.52;;;-0.70;99.90;;;;;;5035247;28;20033;-70
2023/01/21 07:51:44;;;;;;;55.53;28.13;;;-0.70;99.90;;;;;;5035432;28;20057;-70
2023/01/21 07:54:11;;;;;;;56.55;27.42;;;-0.60;99.90;;;;;;5035146;28;20366;-70
2023/01/21 07:56:36;;;;;;;57.10;26.50;;;-0.60;99.90;;;;;;5033673;28;20473;-70
2023/01/21 07:59:02;;;;;;;63.28;28.65;;;-0.60;99.90;;;;;;5035442;28;20104;-70
2023/01/21 08:01:29;;;;;;;55.63;28.33;;;-0.60;99.90;;;;;;5051026;28;20095;-70
2023/01/21 08:03:58;;;;;;;62.75;29.38;;;-0.50;99.90;;;;;;5054948;28;20029;-70
2023/01/21 08:06:24;;;;;;;55.78;28.40;;;-0.40;99.90;;;;;;5054565;28;20033;-70
2023/01/21 08:08:50;;;;;;;64.80;28.52;;;-0.40;99.90;;;;;;5111140;23;20053;-69
2023/01/21 08:11:15;;;;;;;62.33;29.65;;;-0.30;99.90;;;;;;5035159;28;20381;-69
2023/01/21 08:13:41;;;;;;;66.55;26.77;;;-0.30;99.90;;;;;;5029131;28;20030;-69
2023/01/21 08:16:10;;;;;;;52.22;27.05;;;-0.30;99.90;;;;;;5017388;28;20022;-69
2023/01/21 08:18:35;;;;;;;67.18;29.67;;;-0.30;99.90;;;;;;5014631;28;20101;-69
2023/01/21 08:21:01;;;;;;;56.65;28.98;;;-0.20;99.90;;;;;;5020466;28;20564;-69
2023/01/21 08:23:27;;;;;;;63.60;29.95;;;-0.20;99.90;;;;;;5034840;28;20025;-70
2023/01/21 08:25:53;;;;;;;55.22;27.50;;;-0.10;99.90;;;;;;5034837;28;20025;-70
2023/01/21 08:28:18;;;;;;;60.70;28.50;;;-0.20;99.90;;;;;;5033600;28;20029;-70
2023/01/21 08:30:44;;;;;;;57.42;30.73;;;-0.10;99.90;;;;;;5035085;28;20071;-69
2023/01/21 08:33:09;;;;;;;70.72;31.52;;;-0.10;99.90;;;;;;5032989;28;20036;-69
2023/01/21 08:35:35;;;;;;;145.25;44.85;;;-0.10;99.90;;;;;;5033137;28;20078;-69
2023/01/21 08:38:01;;;;;;;130.77;44.00;;;0.10;99.90;;;;;;5026493;28;20026;-69
2023/01/21 08:40:26;;;;;;;130.57;42.83;;;0.10;99.90;;;;;;5014831;28;20096;-69
2023/01/21 08:43:00;;;;;;;172.50;50.30;;;0.10;99.90;;;;;;5016783;28;20507;-69
2023/01/21 08:45:26;;;;;;;137.60;47.70;;;0.10;99.90;;;;;;5014799;28;20033;-70
2023/01/21 08:47:51;;;;;;;146.45;46.90;;;0.20;99.90;;;;;;5014859;28;20053;-70
2023/01/21 08:50:17;;;;;;;81.43;33.92;;;0.20;99.90;;;;;;5032947;28;20087;-69
2023/01/21 08:52:48;;;;;;;83.85;37.10;;;0.20;99.90;;;;;;5034076;28;20075;-69
2023/01/21 08:55:14;;;;;;;142.82;47.58;;;0.30;99.90;;;;;;5034247;28;20535;-69
2023/01/21 08:57:39;;;;;;;146.90;47.72;;;0.30;99.90;;;;;;5034511;28;20030;-68
2023/01/21 09:00:05;;;;;;;146.73;47.78;;;0.30;99.90;;;;;;5029989;28;20100;-68
2023/01/21 09:02:31;;;;;;;205.88;54.83;;;0.40;99.90;;;;;;5033917;28;20036;-68
2023/01/21 09:04:56;;;;;;;170.50;50.78;;;0.40;99.90;;;;;;5033932;28;20025;-68
2023/01/21 09:07:22;;;;;;;205.00;57.83;;;0.50;99.90;;;;;;5033671;28;20025;-68
2023/01/21 09:09:48;;;;;;;145.95;48.63;;;0.50;99.90;;;;;;5034326;28;20033;-68
2023/01/21 09:12:13;;;;;;;168.43;55.60;;;0.40;99.90;;;;;;5033747;28;20028;-68
2023/01/21 09:14:39;;;;;;;134.80;47.03;;;0.50;99.90;;;;;;5033601;28;20033;-68
2023/01/21 09:17:04;;;;;;;166.52;57.13;;;0.50;99.90;;;;;;5033601;28;20029;-68
2023/01/21 09:19:30;;;;;;;357.40;127.78;;;0.50;99.90;;;;;;5033550;28;20032;-68
2023/01/21 09:21:55;;;;;;;190.30;64.30;;;0.50;99.90;;;;;;5033720;28;20473;-68
2023/01/21 09:24:21;;;;;;;139.00;49.40;;;0.50;99.90;;;;;;5033816;28;20079;-68
2023/01/21 09:26:46;;;;;;;143.82;50.17;;;0.50;99.90;;;;;;5033631;28;20040;-68
2023/01/21 09:29:12;;;;;;;85.82;37.38;;;0.50;99.90;;;;;;5033455;28;20087;-69
2023/01/21 09:31:38;;;;;;;80.68;35.58;;;0.50;99.90;;;;;;5033413;28;20091;-69
2023/01/21 09:34:09;;;;;;;77.60;35.08;;;0.50;99.90;;;;;;5033603;28;20033;-69
2023/01/21 09:36:35;;;;;;;70.75;32.75;;;0.50;99.90;;;;;;5033671;28;20018;-69
2023/01/21 09:39:00;;;;;;;77.00;36.45;;;0.50;99.90;;;;;;5033281;28;20026;-69
2023/01/21 09:41:32;;;;;;;97.50;43.22;;;0.60;99.90;;;;;;5033384;28;20044;-70
2023/01/21 09:44:11;;;;;;;104.10;42.80;;;0.60;99.90;;;;;;5030389;28;20022;-69
2023/01/21 09:47:02;;;;;;;90.15;40.10;;;0.60;99.90;;;;;;5033122;28;20096;-69
2023/01/21 09:49:45;;;;;;;91.50;41.15;;;0.60;99.90;;;;;;5025538;28;20038;-69
2023/01/21 09:52:39;;;;;;;78.43;38.08;;;0.70;99.90;;;;;;5013510;28;20026;-70
2023/01/21 09:55:22;;;;;;;81.45;35.75;;;0.70;99.90;;;;;;5022737;28;20119;-69
2023/01/21 09:58:28;;;;;;;81.57;35.53;;;0.70;99.90;;;;;;5032963;28;20026;-69
2023/01/21 10:01:00;;;;;;;78.28;36.20;;;0.70;99.90;;;;;;5032891;28;20248;-69
2023/01/21 10:03:46;;;;;;;74.72;34.13;;;0.80;99.90;;;;;;5033667;28;20055;-69
2023/01/21 10:06:39;;;;;;;75.80;34.17;;;0.80;99.90;;;;;;5029538;28;20095;-69
2023/01/21 10:09:34;;;;;;;75.45;35.75;;;0.80;99.90;;;;;;5024782;28;20038;-69
2023/01/21 10:12:21;;;;;;;73.95;35.03;;;0.90;99.90;;;;;;5014002;28;20037;-69
2023/01/21 10:14:55;;;;;;;75.78;34.92;;;1.00;99.90;;;;;;5013511;28;20113;-69
2023/01/21 10:17:34;;;;;;;70.70;35.08;;;1.00;99.90;;;;;;5028628;28;20021;-69
2023/01/21 10:20:41;;;;;;;66.53;32.95;;;1.10;99.90;;;;;;5033342;28;20022;-69
2023/01/21 10:23:16;;;;;;;64.97;31.77;;;1.20;99.90;;;;;;5030839;28;20562;-69
2023/01/21 10:25:46;;;;;;;72.68;34.75;;;1.20;99.90;;;;;;5033181;28;20021;-69
2023/01/21 10:28:20;;;;;;;73.85;32.35;;;1.30;99.90;;;;;;5028765;28;20022;-69
2023/01/21 10:30:52;;;;;;;66.97;33.28;;;1.30;99.90;;;;;;5031639;28;20079;-69
2023/01/21 10:33:24;;;;;;;78.63;35.50;;;1.40;99.90;;;;;;5032795;28;20033;-69
2023/01/21 10:36:25;;;;;;;84.00;37.13;;;1.40;99.90;;;;;;5033053;28;20030;-69
2023/01/21 10:39:12;;;;;;;64.93;33.45;;;1.40;99.90;;;;;;5022595;28;20029;-69
2023/01/21 10:42:05;;;;;;;64.88;30.92;;;1.50;99.90;;;;;;5013645;28;20026;-69
2023/01/21 10:44:57;;;;;;;72.00;33.05;;;1.50;99.90;;;;;;5026821;28;20052;-69
2023/01/21 10:47:28;;;;;;;69.00;32.63;;;1.50;99.90;;;;;;5033239;28;20032;-69
2023/01/21 10:50:20;;;;;;;69.15;33.78;;;1.60;99.90;;;;;;5021527;28;20037;-69
2023/01/21 10:52:51;;;;;;;61.67;30.48;;;1.80;99.90;;;;;;5013249;28;20030;-69
2023/01/21 10:55:48;;;;;;;66.35;31.98;;;1.80;99.90;;;;;;5021845;28;20025;-69
2023/01/21 10:58:26;;;;;;;66.70;30.52;;;1.90;99.90;;;;;;5036576;28;20053;-69
2023/01/21 11:00:54;;;;;;;66.40;33.35;;;2.00;99.90;;;;;;5020459;28;20026;-69
2023/01/21 11:03:34;;;;;;;74.53;33.38;;;2.10;99.90;;;;;;5015268;28;20026;-70
2023/01/21 11:06:03;;;;;;;60.88;30.90;;;2.20;99.90;;;;;;5031608;28;20033;-69
2023/01/21 11:08:29;;;;;;;63.22;32.50;;;2.20;99.90;;;;;;5016286;28;20037;-69
2023/01/21 11:10:55;;;;;;;72.45;35.03;;;2.30;99.90;;;;;;5026719;28;20079;-69
2023/01/21 11:13:21;;;;;;;67.50;33.55;;;2.30;99.90;;;;;;5036336;28;20033;-70
2023/01/21 11:15:52;;;;;;;61.42;31.63;;;2.30;99.90;;;;;;5036007;28;20024;-69
2023/01/21 11:18:25;;;;;;;66.85;32.53;;;2.40;99.90;;;;;;5035917;28;20025;-69
2023/01/21 11:20:52;;;;;;;71.88;33.17;;;2.40;99.90;;;;;;5035844;28;20025;-69
2023/01/21 11:23:38;;;;;;;67.22;32.42;;;2.40;99.90;;;;;;5036212;28;20144;-69
2023/01/21 11:26:27;;;;;;;70.65;33.83;;;2.50;99.90;;;;;;5035986;28;20025;-69
2023/01/21 11:29:13;;;;;;;77.80;34.80;;;2.60;99.90;;;;;;5035940;28;20036;-69
2023/01/21 11:31:43;;;;;;;69.60;33.20;;;2.50;99.90;;;;;;5035836;28;20393;-70
2023/01/21 11:34:18;;;;;;;59.47;30.73;;;2.60;99.90;;;;;;5029020;28;20040;-70
2023/01/21 11:36:59;;;;;;;66.05;33.28;;;2.60;99.90;;;;;;5035340;28;20151;-69
2023/01/21 11:39:27;;;;;;;66.38;31.77;;;2.60;99.90;;;;;;5019585;28;20028;-70
2023/01/21 11:42:01;;;;;;;64.30;33.88;;;2.60;99.90;;;;;;5033689;28;20070;-70
2023/01/21 11:44:27;;;;;;;69.28;33.20;;;2.70;99.90;;;;;;5035451;28;20044;-70
2023/01/21 11:46:52;;;;;;;67.40;32.85;;;2.80;99.90;;;;;;5035177;28;20022;-69
2023/01/21 11:49:24;;;;;;;66.13;31.85;;;2.80;99.90;;;;;;5035477;28;20028;-69
2023/01/21 11:52:04;;;;;;;58.70;32.13;;;2.90;99.90;;;;;;5035914;28;20122;-69
2023/01/21 11:54:38;;;;;;;62.38;32.63;;;2.90;99.90;;;;;;5035717;28;20472;-69
2023/01/21 11:57:03;;;;;;;70.45;37.38;;;3.00;99.90;;;;;;5035261;28;20105;-69
2023/01/21 11:59:35;;;;;;;72.20;34.63;;;3.00;99.90;;;;;;5034956;28;20041;-69
2023/01/21 12:02:15;;;;;;;69.03;35.63;;;2.90;99.90;;;;;;5033847;28;20435;-69
2023/01/21 12:04:55;;;;;;;73.18;35.90;;;3.10;99.90;;;;;;5035360;28;20029;-69
2023/01/21 12:07:25;;;;;;;71.90;37.03;;;3.00;99.90;;;;;;5034296;28;20026;-69
2023/01/21 12:10:11;;;;;;;76.22;34.50;;;3.10;99.90;;;;;;5035476;28;20489;-69
2023/01/21 12:13:03;;;;;;;63.08;33.20;;;3.20;99.90;;;;;;5015441;28;20362;-69
2023/01/21 12:15:51;;;;;;;58.30;32.13;;;3.10;99.90;;;;;;5015083;28;20072;-69
2023/01/21 12:18:55;;;;;;;66.68;34.40;;;3.20;99.90;;;;;;5014614;28;20029;-69
2023/01/21 12:21:39;;;;;;;;;;;3.10;99.90;;;;;;5010041;28;20045;-69
2023/01/21 12:24:11;;;;;;;;;;;3.10;99.90;;;;;;5015773;28;19956;-69
2023/01/21 12:26:46;;;;;;;66.75;33.90;;;3.20;99.90;;;;;;5016698;28;19906;-69
2023/01/21 12:29:24;;;;;;;69.00;31.65;;;3.20;99.90;;;;;;5030171;28;20476;-69
2023/01/21 12:32:12;;;;;;;62.53;32.72;;;3.30;99.90;;;;;;5015174;28;20452;-69
2023/01/21 12:34:51;;;;;;;60.65;31.27;;;3.20;99.90;;;;;;5030695;28;20104;-69
2023/01/21 12:37:34;;;;;;;51.92;30.60;;;3.40;99.90;;;;;;5034562;28;20021;-69
2023/01/21 12:40:10;;;;;;;57.72;29.45;;;3.40;99.90;;;;;;5034782;28;20021;-69
2023/01/21 12:42:39;;;;;;;49.05;27.48;;;3.40;99.90;;;;;;5034673;28;20431;-69
2023/01/21 12:45:12;;;;;;;47.97;25.90;;;3.40;99.90;;;;;;5034362;28;20486;-69
2023/01/21 12:47:59;;;;;;;55.60;30.65;;;3.40;99.90;;;;;;5034182;28;20083;-69